Time;durP1;ratioP1;P1;durP2;ratioP2;P2;SDS_P1;SDS_P2;PMS_P1;PMS_P2;Temp;Humidity;BMP_temperature;BMP_pressure;BME280_temperature;BME280_humidity;BME280_pressure;Samples;Min_cycle;Max_cycle;Signal;HPM_P1;HPM_P2
2021/07/28 00:01:28;;;;;;;28.10;26.50;;;;;;;;;;4986793;23;20557;-67
2021/07/28 00:03:55;;;;;;;27.53;25.93;;;;;;;;;;4970062;28;20482;-67
2021/07/28 00:06:22;;;;;;;27.63;26.20;;;;;;;;;;4960422;28;20471;-67
2021/07/28 00:08:51;;;;;;;28.80;27.30;;;;;;;;;;4972818;28;20471;-66
2021/07/28 00:11:19;;;;;;;29.30;27.70;;;;;;;;;;4969683;28;20487;-66
2021/07/28 00:13:47;;;;;;;28.23;26.53;;;;;;;;;;4972115;28;20475;-66
2021/07/28 00:16:14;;;;;;;27.53;25.93;;;;;;;;;;4972207;28;20498;-68
2021/07/28 00:18:48;;;;;;;29.60;27.80;;;;;;;;;;4971686;28;20572;-67
2021/07/28 00:24:01;;;;;;;28.27;26.77;;;;;;;;;;4960060;28;20522;-67
2021/07/28 00:26:29;;;;;;;29.97;27.77;;;;;;;;;;4972100;28;20568;-67
2021/07/28 00:28:56;;;;;;;30.27;28.33;;;;;;;;;;4972633;28;20463;-67
2021/07/28 00:31:23;;;;;;;28.77;26.90;;;;;;;;;;4971470;28;20494;-66
2021/07/28 00:33:50;;;;;;;28.80;27.10;;;;;;;;;;4971415;28;20847;-66
2021/07/28 00:36:17;;;;;;;28.60;26.90;;;;;;;;;;4968763;28;20469;-67
2021/07/28 00:38:44;;;;;;;29.17;27.47;;;;;;;;;;4967571;28;20543;-66
2021/07/28 00:41:15;;;;;;;29.37;27.47;;;;;;;;;;4971224;28;20483;-67
2021/07/28 00:43:42;;;;;;;28.40;26.80;;;;;;;;;;4963771;28;20465;-67
2021/07/28 00:46:09;;;;;;;28.77;26.80;;;;;;;;;;4962765;28;20963;-67
2021/07/28 00:48:37;;;;;;;28.20;26.60;;;;;;;;;;4970095;28;20998;-67
2021/07/28 00:51:05;;;;;;;28.70;27.00;;;;;;;;;;4972399;28;20494;-66
2021/07/28 00:53:33;;;;;;;29.00;27.40;;;;;;;;;;4970635;28;20474;-66
2021/07/28 00:56:01;;;;;;;29.40;27.60;;;;;;;;;;4972531;28;20471;-67
2021/07/28 00:58:31;;;;;;;28.03;26.53;;;;;;;;;;4970756;28;20479;-66
2021/07/28 01:00:58;;;;;;;29.07;27.40;;;;;;;;;;4971911;28;20495;-66
2021/07/28 01:03:25;;;;;;;29.00;27.40;;;;;;;;;;4972085;28;20471;-66
2021/07/28 01:05:52;;;;;;;29.10;27.47;;;;;;;;;;4970640;28;20478;-67
2021/07/28 01:08:19;;;;;;;28.20;26.60;;;;;;;;;;4970872;28;20467;-67
2021/07/28 01:10:47;;;;;;;27.10;25.70;;;;;;;;;;4971700;28;20464;-66
2021/07/28 01:13:14;;;;;;;27.33;25.83;;;;;;;;;;4971365;28;20490;-66
2021/07/28 01:15:43;;;;;;;28.70;27.00;;;;;;;;;;4971293;28;20478;-67
2021/07/28 01:18:13;;;;;;;27.90;26.40;;;;;;;;;;4975628;28;20471;-67
2021/07/28 01:20:41;;;;;;;26.60;25.10;;;;;;;;;;4974910;28;20490;-68
2021/07/28 01:23:10;;;;;;;26.90;25.50;;;;;;;;;;4975752;28;20455;-67
2021/07/28 01:25:38;;;;;;;27.60;26.00;;;;;;;;;;4975552;28;20481;-68
2021/07/28 01:28:06;;;;;;;26.73;25.13;;;;;;;;;;4976369;28;20465;-66
2021/07/28 01:30:33;;;;;;;26.90;25.40;;;;;;;;;;4974467;28;20469;-66
2021/07/28 01:33:02;;;;;;;27.10;25.60;;;;;;;;;;4975464;28;20966;-67
2021/07/28 01:35:32;;;;;;;26.60;25.00;;;;;;;;;;4975297;28;20447;-66
2021/07/28 01:37:59;;;;;;;26.03;24.43;;;;;;;;;;4975607;28;20976;-67
2021/07/28 01:40:26;;;;;;;26.23;24.60;;;;;;;;;;4975052;28;20840;-68
2021/07/28 01:42:55;;;;;;;27.37;25.77;;;;;;;;;;4974391;28;20475;-67
2021/07/28 01:45:22;;;;;;;26.53;25.13;;;;;;;;;;4973635;28;20809;-67
2021/07/28 01:47:49;;;;;;;26.30;24.80;;;;;;;;;;4973740;28;20452;-67
2021/07/28 01:50:16;;;;;;;25.60;24.30;;;;;;;;;;4975041;28;20447;-67
2021/07/28 01:52:43;;;;;;;26.67;25.20;;;;;;;;;;4974331;28;20494;-67
2021/07/28 01:55:11;;;;;;;25.70;24.20;;;;;;;;;;4970073;28;20478;-68
2021/07/28 01:57:38;;;;;;;26.23;24.83;;;;;;;;;;4972811;28;20503;-66
2021/07/28 02:00:07;;;;;;;26.43;24.93;;;;;;;;;;4975427;28;20864;-67
2021/07/28 02:02:35;;;;;;;25.70;24.20;;;;;;;;;;4974804;28;20503;-68
2021/07/28 02:05:03;;;;;;;26.40;24.77;;;;;;;;;;4973371;28;20544;-66
2021/07/28 02:07:30;;;;;;;26.30;24.60;;;;;;;;;;4974541;28;20966;-67
2021/07/28 02:09:57;;;;;;;25.87;24.37;;;;;;;;;;4974197;28;20469;-68
2021/07/28 02:12:24;;;;;;;25.57;24.20;;;;;;;;;;4971317;28;21023;-66
2021/07/28 02:14:51;;;;;;;26.17;24.57;;;;;;;;;;4975656;28;20459;-66
2021/07/28 02:17:20;;;;;;;26.20;24.70;;;;;;;;;;4974425;28;20574;-67
2021/07/28 02:19:47;;;;;;;26.10;24.53;;;;;;;;;;4974349;28;21177;-68
2021/07/28 02:22:14;;;;;;;25.50;24.00;;;;;;;;;;4972867;28;20491;-68
2021/07/28 02:24:41;;;;;;;25.13;23.70;;;;;;;;;;4973881;28;20474;-68
2021/07/28 02:27:09;;;;;;;25.30;23.80;;;;;;;;;;4974474;28;20465;-67
2021/07/28 02:29:36;;;;;;;25.57;24.10;;;;;;;;;;4975118;28;20471;-67
2021/07/28 02:32:04;;;;;;;25.80;24.30;;;;;;;;;;4974701;28;20483;-68
2021/07/28 02:34:33;;;;;;;25.60;24.23;;;;;;;;;;4974327;28;20482;-66
2021/07/28 02:37:00;;;;;;;25.53;24.13;;;;;;;;;;4974054;28;20475;-67
2021/07/28 02:39:27;;;;;;;25.60;23.80;;;;;;;;;;4973574;28;21298;-66
2021/07/28 02:41:54;;;;;;;26.13;24.40;;;;;;;;;;4973955;28;20483;-67
2021/07/28 02:44:21;;;;;;;25.67;24.37;;;;;;;;;;4973817;28;20471;-68
2021/07/28 02:46:48;;;;;;;26.20;24.80;;;;;;;;;;4971697;28;20471;-66
2021/07/28 02:49:16;;;;;;;25.57;24.13;;;;;;;;;;4974328;28;20494;-68
2021/07/28 02:51:44;;;;;;;26.63;25.13;;;;;;;;;;4974632;28;20471;-66
2021/07/28 02:54:11;;;;;;;25.40;24.10;;;;;;;;;;4969092;28;20482;-66
2021/07/28 02:56:39;;;;;;;24.57;23.30;;;;;;;;;;4974540;28;20877;-66
2021/07/28 02:59:07;;;;;;;24.57;23.27;;;;;;;;;;4973750;28;20478;-66
2021/07/28 03:01:34;;;;;;;24.90;23.60;;;;;;;;;;4974118;28;20497;-66
2021/07/28 03:04:01;;;;;;;26.97;25.20;;;;;;;;;;4973678;28;20971;-66
2021/07/28 03:06:28;;;;;;;25.50;24.07;;;;;;;;;;4969699;28;20471;-68
2021/07/28 03:08:56;;;;;;;26.20;24.50;;;;;;;;;;4974161;28;20481;-67
2021/07/28 03:11:23;;;;;;;25.30;23.90;;;;;;;;;;4971267;28;20498;-67
2021/07/28 03:13:51;;;;;;;25.40;24.07;;;;;;;;;;4961856;28;20472;-67
2021/07/28 03:16:18;;;;;;;25.90;24.40;;;;;;;;;;4964321;28;20467;-66
2021/07/28 03:18:45;;;;;;;25.60;24.27;;;;;;;;;;4974057;28;20451;-66
2021/07/28 03:21:12;;;;;;;25.57;24.07;;;;;;;;;;4973358;28;20875;-68
2021/07/28 03:23:39;;;;;;;25.93;24.53;;;;;;;;;;4973666;28;20969;-66
2021/07/28 03:26:08;;;;;;;26.10;24.70;;;;;;;;;;4973607;28;20467;-67
2021/07/28 03:28:35;;;;;;;25.70;24.30;;;;;;;;;;4973757;28;20459;-66
2021/07/28 03:31:02;;;;;;;27.40;25.70;;;;;;;;;;4972931;28;20854;-66
2021/07/28 03:33:30;;;;;;;26.47;24.90;;;;;;;;;;4974238;28;20451;-67
2021/07/28 03:35:57;;;;;;;26.30;24.80;;;;;;;;;;4969725;28;20477;-68
2021/07/28 03:38:24;;;;;;;26.47;24.40;;;;;;;;;;4972555;28;20471;-66
2021/07/28 03:40:51;;;;;;;26.00;24.40;;;;;;;;;;4973257;28;20498;-67
2021/07/28 03:43:20;;;;;;;26.70;25.20;;;;;;;;;;4971980;28;20470;-66
2021/07/28 03:45:48;;;;;;;26.80;25.10;;;;;;;;;;4973475;28;20451;-68
2021/07/28 03:48:15;;;;;;;26.10;24.50;;;;;;;;;;4973077;28;20475;-67
2021/07/28 03:50:42;;;;;;;26.27;24.67;;;;;;;;;;4972374;28;20474;-66
2021/07/28 03:53:09;;;;;;;25.73;24.13;;;;;;;;;;4972393;28;20862;-67
2021/07/28 03:55:37;;;;;;;27.33;25.43;;;;;;;;;;4972037;28;21257;-66
2021/07/28 03:58:04;;;;;;;26.80;25.10;;;;;;;;;;4968169;28;20456;-67
2021/07/28 04:00:32;;;;;;;26.50;24.90;;;;;;;;;;4954119;28;20491;-66
2021/07/28 04:02:59;;;;;;;26.40;24.90;;;;;;;;;;4954335;28;20460;-68
2021/07/28 04:05:26;;;;;;;27.50;25.90;;;;;;;;;;4969132;28;20473;-67
2021/07/28 04:07:57;;;;;;;28.10;26.20;;;;;;;;;;4970936;28;20472;-68
2021/07/28 04:10:24;;;;;;;28.10;26.50;;;;;;;;;;4973452;28;20447;-67
2021/07/28 04:12:51;;;;;;;27.80;25.80;;;;;;;;;;4972399;28;20493;-66
2021/07/28 04:15:19;;;;;;;27.50;25.90;;;;;;;;;;4973545;28;20462;-66
2021/07/28 04:17:47;;;;;;;27.83;26.00;;;;;;;;;;4971269;28;20842;-67
2021/07/28 04:20:15;;;;;;;28.73;26.93;;;;;;;;;;4968292;28;20837;-65
2021/07/28 04:22:42;;;;;;;29.43;27.40;;;;;;;;;;4971879;28;20495;-69
2021/07/28 04:25:10;;;;;;;27.67;26.07;;;;;;;;;;4973744;28;20455;-67
2021/07/28 04:27:37;;;;;;;27.10;25.50;;;;;;;;;;4973353;28;20482;-67
2021/07/28 04:30:06;;;;;;;27.30;25.70;;;;;;;;;;4971674;28;20483;-69
2021/07/28 04:32:33;;;;;;;27.13;25.43;;;;;;;;;;4972817;28;20478;-67
2021/07/28 04:35:01;;;;;;;27.30;25.63;;;;;;;;;;4972062;28;20987;-67
2021/07/28 04:37:28;;;;;;;28.73;26.87;;;;;;;;;;4970533;28;20475;-67
2021/07/28 04:40:00;;;;;;;27.13;25.43;;;;;;;;;;4971989;28;20562;-66
2021/07/28 04:42:27;;;;;;;26.97;25.37;;;;;;;;;;4972145;28;20486;-66
2021/07/28 04:44:55;;;;;;;27.37;25.70;;;;;;;;;;4972163;28;20471;-66
2021/07/28 04:47:22;;;;;;;27.37;25.57;;;;;;;;;;4971970;28;20846;-66
2021/07/28 04:49:49;;;;;;;27.57;25.87;;;;;;;;;;4971904;28;20482;-67
2021/07/28 04:52:22;;;;;;;28.07;26.07;;;;;;;;;;4971420;28;20495;-66
2021/07/28 04:54:50;;;;;;;26.37;24.73;;;;;;;;;;4972221;28;20550;-66
2021/07/28 04:57:17;;;;;;;28.70;26.90;;;;;;;;;;4971995;28;20474;-67
2021/07/28 04:59:44;;;;;;;28.27;26.47;;;;;;;;;;4971260;28;20467;-67
2021/07/28 05:02:11;;;;;;;28.83;26.83;;;;;;;;;;4972033;28;20498;-66
2021/07/28 05:04:39;;;;;;;28.47;26.57;;;;;;;;;;4972116;28;20478;-68
2021/07/28 05:07:06;;;;;;;27.90;26.03;;;;;;;;;;4971197;28;20471;-68
2021/07/28 05:09:34;;;;;;;28.07;26.40;;;;;;;;;;4971949;28;20475;-66
2021/07/28 05:12:01;;;;;;;27.87;26.00;;;;;;;;;;4972423;28;20478;-65
2021/07/28 05:14:28;;;;;;;35.67;33.67;;;;;;;;;;4969459;28;20843;-66
2021/07/28 05:16:55;;;;;;;30.33;28.63;;;;;;;;;;4972532;28;20464;-67
2021/07/28 05:19:23;;;;;;;28.17;26.37;;;;;;;;;;4970835;28;20543;-66
2021/07/28 05:21:50;;;;;;;28.07;26.27;;;;;;;;;;4970122;28;20862;-67
2021/07/28 05:24:17;;;;;;;29.07;27.17;;;;;;;;;;4971937;28;20473;-66
2021/07/28 05:26:45;;;;;;;28.37;26.57;;;;;;;;;;4971875;28;20467;-66
2021/07/28 05:29:12;;;;;;;30.13;28.13;;;;;;;;;;4971453;28;20482;-66
2021/07/28 05:31:39;;;;;;;30.03;27.77;;;;;;;;;;4970597;28;20483;-67
2021/07/28 05:34:06;;;;;;;28.17;26.47;;;;;;;;;;4969660;28;20476;-67
2021/07/28 05:36:34;;;;;;;29.73;27.83;;;;;;;;;;4972154;28;20474;-67
2021/07/28 05:39:01;;;;;;;29.67;27.43;;;;;;;;;;4972026;28;20451;-67
2021/07/28 05:41:28;;;;;;;28.50;26.53;;;;;;;;;;4971119;28;20946;-67
2021/07/28 05:43:56;;;;;;;30.63;28.60;;;;;;;;;;4972184;28;20461;-66
2021/07/28 05:46:23;;;;;;;31.13;29.03;;;;;;;;;;4970929;28;21177;-67
2021/07/28 05:48:50;;;;;;;30.57;27.70;;;;;;;;;;4971796;28;20459;-67
2021/07/28 05:51:18;;;;;;;28.00;26.20;;;;;;;;;;4970903;28;20567;-67
2021/07/28 05:53:45;;;;;;;31.13;28.57;;;;;;;;;;4966732;28;20856;-67
2021/07/28 05:56:12;;;;;;;30.57;27.57;;;;;;;;;;4966455;28;20469;-68
2021/07/28 05:58:39;;;;;;;31.20;29.20;;;;;;;;;;4953272;29;20464;-67
2021/07/28 06:01:07;;;;;;;28.90;26.90;;;;;;;;;;4964649;28;20491;-68
2021/07/28 06:03:34;;;;;;;27.53;25.70;;;;;;;;;;4974008;28;20958;-68
2021/07/28 06:06:01;;;;;;;28.60;26.63;;;;;;;;;;4974941;23;21018;-65
2021/07/28 06:08:29;;;;;;;26.73;24.63;;;;;;;;;;4956268;28;20451;-66
2021/07/28 06:10:56;;;;;;;27.67;25.77;;;;;;;;;;4955485;28;20463;-66
2021/07/28 06:13:23;;;;;;;26.50;24.80;;;;;;;;;;4953946;28;20464;-66
2021/07/28 06:15:50;;;;;;;27.67;26.00;;;;;;;;;;4955544;28;21029;-63
2021/07/28 06:18:18;;;;;;;27.93;26.27;;;;;;;;;;4954778;28;20471;-63
2021/07/28 06:20:45;;;;;;;28.07;26.27;;;;;;;;;;4954414;29;20995;-63
2021/07/28 06:23:12;;;;;;;27.53;25.77;;;;;;;;;;4955221;28;20476;-64
2021/07/28 06:25:40;;;;;;;28.67;26.87;;;;;;;;;;4956016;28;20595;-63
2021/07/28 06:28:07;;;;;;;30.80;28.83;;;;;;;;;;4955797;28;20482;-64
2021/07/28 06:30:34;;;;;;;28.67;26.97;;;;;;;;;;4956049;28;20543;-64
2021/07/28 06:33:01;;;;;;;31.80;29.90;;;;;;;;;;4955080;28;20472;-63
2021/07/28 06:35:30;;;;;;;26.97;25.37;;;;;;;;;;4954902;28;20484;-63
2021/07/28 06:37:57;;;;;;;29.87;28.17;;;;;;;;;;4955257;28;20841;-65
2021/07/28 06:40:24;;;;;;;31.27;29.43;;;;;;;;;;4953552;28;20479;-62
2021/07/28 06:42:51;;;;;;;25.97;24.47;;;;;;;;;;4955915;28;20488;-65
2021/07/28 06:45:18;;;;;;;26.67;25.13;;;;;;;;;;4951516;28;20492;-66
2021/07/28 06:47:45;;;;;;;25.80;24.30;;;;;;;;;;4956413;28;20463;-65
2021/07/28 06:50:12;;;;;;;26.17;24.77;;;;;;;;;;4955505;28;20465;-63
2021/07/28 06:52:41;;;;;;;26.80;25.40;;;;;;;;;;4954108;28;20539;-65
2021/07/28 06:55:09;;;;;;;25.33;23.90;;;;;;;;;;4956096;28;20472;-66
2021/07/28 06:57:36;;;;;;;25.90;24.40;;;;;;;;;;4952175;28;20468;-65
2021/07/28 07:00:05;;;;;;;25.27;23.87;;;;;;;;;;4948933;29;20974;-66
2021/07/28 07:02:32;;;;;;;23.93;22.63;;;;;;;;;;4956040;29;20499;-66
2021/07/28 07:04:59;;;;;;;26.63;24.80;;;;;;;;;;4954818;28;20480;-64
2021/07/28 07:07:27;;;;;;;26.13;24.63;;;;;;;;;;4950435;28;20459;-64
2021/07/28 07:09:55;;;;;;;24.57;23.27;;;;;;;;;;4954590;28;20472;-64
2021/07/28 07:12:23;;;;;;;25.93;24.53;;;;;;;;;;4955574;28;20452;-63
2021/07/28 07:14:50;;;;;;;25.70;24.13;;;;;;;;;;4949813;28;20480;-63
2021/07/28 07:17:17;;;;;;;26.27;24.67;;;;;;;;;;4941098;28;20461;-63
2021/07/28 07:19:44;;;;;;;27.43;25.93;;;;;;;;;;4948222;29;20480;-63
2021/07/28 07:22:11;;;;;;;25.77;24.07;;;;;;;;;;4961015;28;20488;-63
2021/07/28 07:24:38;;;;;;;26.13;24.60;;;;;;;;;;4967839;28;20553;-65
2021/07/28 07:27:07;;;;;;;26.13;24.50;;;;;;;;;;4968788;28;20503;-63
2021/07/28 07:29:34;;;;;;;25.53;24.00;;;;;;;;;;4949742;28;20457;-64
2021/07/28 07:32:02;;;;;;;25.67;24.27;;;;;;;;;;4954588;28;20455;-62
2021/07/28 07:34:29;;;;;;;26.03;24.43;;;;;;;;;;4955584;28;20555;-63
2021/07/28 07:36:56;;;;;;;24.47;22.97;;;;;;;;;;4955727;28;20454;-63
2021/07/28 07:39:23;;;;;;;27.30;25.60;;;;;;;;;;4955377;28;20461;-60
2021/07/28 07:41:51;;;;;;;26.77;25.27;;;;;;;;;;4955062;28;21033;-63
2021/07/28 07:44:19;;;;;;;25.90;24.30;;;;;;;;;;4954484;28;20823;-63
2021/07/28 07:46:46;;;;;;;27.60;26.00;;;;;;;;;;4955088;28;20464;-61
2021/07/28 07:49:13;;;;;;;26.00;24.50;;;;;;;;;;4952076;28;20456;-61
2021/07/28 07:51:40;;;;;;;25.60;24.00;;;;;;;;;;4954761;28;20966;-63
2021/07/28 07:54:08;;;;;;;25.77;24.17;;;;;;;;;;4954467;28;20467;-61
2021/07/28 07:56:35;;;;;;;25.70;24.20;;;;;;;;;;4955915;28;20457;-62
2021/07/28 07:59:02;;;;;;;26.90;25.40;;;;;;;;;;4953387;28;20453;-63
2021/07/28 08:01:31;;;;;;;28.53;26.87;;;;;;;;;;4950413;28;20498;-62
2021/07/28 08:03:58;;;;;;;27.43;25.93;;;;;;;;;;4953948;28;20456;-63
2021/07/28 08:06:25;;;;;;;28.53;26.93;;;;;;;;;;4954432;28;20468;-63
2021/07/28 08:08:52;;;;;;;27.30;25.70;;;;;;;;;;4954800;28;20456;-63
2021/07/28 08:11:19;;;;;;;28.97;27.10;;;;;;;;;;4954707;28;20448;-63
2021/07/28 08:13:46;;;;;;;29.00;27.40;;;;;;;;;;4954199;28;20544;-60
2021/07/28 08:16:16;;;;;;;27.20;25.50;;;;;;;;;;4954799;28;20477;-68
2021/07/28 08:18:44;;;;;;;29.37;27.07;;;;;;;;;;4952936;28;20461;-68
2021/07/28 08:21:12;;;;;;;28.60;26.70;;;;;;;;;;4954511;28;20456;-67
2021/07/28 08:23:40;;;;;;;29.93;28.23;;;;;;;;;;4954590;28;20539;-68
2021/07/28 08:26:08;;;;;;;29.03;27.43;;;;;;;;;;4954189;28;20486;-68
2021/07/28 08:28:35;;;;;;;29.33;27.40;;;;;;;;;;4953911;28;20956;-68
2021/07/28 08:31:03;;;;;;;29.43;27.80;;;;;;;;;;4953485;28;20461;-68
2021/07/28 08:33:30;;;;;;;28.20;26.70;;;;;;;;;;4953437;28;20952;-68
2021/07/28 08:36:01;;;;;;;28.93;27.20;;;;;;;;;;4948800;28;20484;-68
2021/07/28 08:38:29;;;;;;;28.40;26.70;;;;;;;;;;4962519;28;20533;-68
2021/07/28 08:41:00;;;;;;;28.37;26.77;;;;;;;;;;4973243;28;20454;-68
2021/07/28 08:43:28;;;;;;;26.93;25.33;;;;;;;;;;4956433;28;20518;-68
2021/07/28 08:45:57;;;;;;;26.17;24.70;;;;;;;;;;4958260;28;20472;-67
2021/07/28 08:48:24;;;;;;;26.73;25.17;;;;;;;;;;4954521;28;20452;-67
2021/07/28 08:50:53;;;;;;;25.40;24.00;;;;;;;;;;4953730;28;20547;-67
2021/07/28 08:53:22;;;;;;;25.77;24.33;;;;;;;;;;4953459;28;20500;-68
2021/07/28 08:55:49;;;;;;;26.23;24.83;;;;;;;;;;4954164;28;20475;-68
2021/07/28 08:58:16;;;;;;;25.93;24.53;;;;;;;;;;4953459;28;20448;-68
2021/07/28 09:00:44;;;;;;;25.60;24.20;;;;;;;;;;4953453;28;20463;-68
2021/07/28 09:03:11;;;;;;;24.90;23.10;;;;;;;;;;4953718;28;20488;-68
2021/07/28 09:05:42;;;;;;;23.67;22.40;;;;;;;;;;4953992;28;20486;-69
2021/07/28 09:08:22;;;;;;;25.03;23.50;;;;;;;;;;4953310;28;20460;-69
2021/07/28 09:10:51;;;;;;;25.10;23.43;;;;;;;;;;4953381;28;20832;-68
2021/07/28 09:13:26;;;;;;;25.40;23.70;;;;;;;;;;4953864;28;20484;-69
2021/07/28 09:15:55;;;;;;;26.70;24.63;;;;;;;;;;4952841;28;20534;-60
2021/07/28 09:18:33;;;;;;;23.60;22.20;;;;;;;;;;4956184;28;20977;-62
2021/07/28 09:21:00;;;;;;;23.73;22.43;;;;;;;;;;4973596;28;20479;-62
2021/07/28 09:23:34;;;;;;;22.60;21.20;;;;;;;;;;4960791;28;20495;-63
2021/07/28 09:26:05;;;;;;;23.95;22.65;;;;;;;;;;4953835;28;20443;-63
2021/07/28 09:28:32;;;;;;;24.00;22.70;;;;;;;;;;4952892;28;20665;-62
2021/07/28 09:30:59;;;;;;;23.23;21.93;;;;;;;;;;4953277;28;20464;-62
2021/07/28 09:33:26;;;;;;;23.20;21.80;;;;;;;;;;4953881;28;20458;-69
2021/07/28 09:36:02;;;;;;;23.17;21.97;;;;;;;;;;4953229;28;20476;-69
2021/07/28 09:38:30;;;;;;;23.80;22.60;;;;;;;;;;4956011;28;20814;-69
2021/07/28 09:41:12;;;;;;;24.50;23.20;;;;;;;;;;4956473;28;20452;-69
2021/07/28 09:43:44;;;;;;;25.30;23.90;;;;;;;;;;4956895;29;20483;-69
2021/07/28 09:46:21;;;;;;;24.17;22.87;;;;;;;;;;4957538;28;20507;-70
2021/07/28 09:48:48;;;;;;;25.10;23.60;;;;;;;;;;4957164;28;20515;-69
2021/07/28 09:51:22;;;;;;;24.10;22.80;;;;;;;;;;4956609;28;20458;-69
2021/07/28 09:53:53;;;;;;;23.40;22.10;;;;;;;;;;4957430;28;20448;-69
2021/07/28 09:56:28;;;;;;;23.83;22.23;;;;;;;;;;4957440;28;20476;-69
2021/07/28 09:58:55;;;;;;;23.40;22.00;;;;;;;;;;4957609;28;20455;-69
2021/07/28 10:01:22;;;;;;;23.50;22.20;;;;;;;;;;4959370;28;20826;-68
2021/07/28 10:03:50;;;;;;;23.17;21.87;;;;;;;;;;4965139;28;20808;-68
2021/07/28 10:06:17;;;;;;;23.90;22.60;;;;;;;;;;4967463;28;20494;-68
2021/07/28 10:08:45;;;;;;;21.80;20.60;;;;;;;;;;4964404;28;20948;-68
2021/07/28 10:11:13;;;;;;;22.73;21.53;;;;;;;;;;4964944;28;20456;-68
2021/07/28 10:13:42;;;;;;;21.80;20.60;;;;;;;;;;4966263;28;20543;-68
2021/07/28 10:16:10;;;;;;;25.27;23.90;;;;;;;;;;4964675;28;20480;-66
2021/07/28 10:18:38;;;;;;;24.50;23.20;;;;;;;;;;4956120;28;20452;-67
2021/07/28 10:21:05;;;;;;;23.40;22.20;;;;;;;;;;4956695;28;20986;-66
2021/07/28 10:23:32;;;;;;;25.47;23.93;;;;;;;;;;4957041;28;20956;-66
2021/07/28 10:25:59;;;;;;;24.30;23.00;;;;;;;;;;4956816;28;20476;-67
2021/07/28 10:28:27;;;;;;;23.30;22.00;;;;;;;;;;4956447;28;20828;-68
2021/07/28 10:31:12;;;;;;;24.80;23.50;;;;;;;;;;4956733;28;20454;-66
2021/07/28 10:33:47;;;;;;;24.27;22.90;;;;;;;;;;4957264;28;20448;-66
2021/07/28 10:36:14;;;;;;;24.87;23.37;;;;;;;;;;4956232;28;20475;-66
2021/07/28 10:38:57;;;;;;;24.17;22.87;;;;;;;;;;4957681;28;20449;-68
2021/07/28 10:41:43;;;;;;;26.03;24.43;;;;;;;;;;4959599;28;20470;-66
2021/07/28 10:44:11;;;;;;;24.93;23.70;;;;;;;;;;4967725;28;20815;-67
2021/07/28 10:46:53;;;;;;;25.10;23.70;;;;;;;;;;4966095;28;20990;-67
2021/07/28 10:52:34;;;;;;;26.10;24.50;;;;;;;;;;5099165;27;20528;-66
2021/07/28 10:55:15;;;;;;;25.47;24.17;;;;;;;;;;5064786;28;20476;-67
2021/07/28 10:58:07;;;;;;;24.50;23.10;;;;;;;;;;5055633;28;20454;-65
2021/07/28 11:00:50;;;;;;;23.93;22.70;;;;;;;;;;5049929;28;20478;-67
2021/07/28 11:03:18;;;;;;;25.17;23.87;;;;;;;;;;5049350;28;20455;-65
2021/07/28 11:05:48;;;;;;;25.03;23.70;;;;;;;;;;5050869;28;20475;-69
2021/07/28 11:08:19;;;;;;;25.53;24.23;;;;;;;;;;5054779;28;20838;-66
2021/07/28 11:10:58;;;;;;;25.40;23.87;;;;;;;;;;5067649;28;20495;-65
2021/07/28 11:13:25;;;;;;;24.63;23.27;;;;;;;;;;5069205;28;20443;-64
2021/07/28 11:15:53;;;;;;;25.13;23.83;;;;;;;;;;5065822;28;20472;-64
2021/07/28 11:18:32;;;;;;;23.57;22.27;;;;;;;;;;5059423;28;20453;-65
2021/07/28 11:21:06;;;;;;;24.83;23.53;;;;;;;;;;5068420;28;20447;-65
2021/07/28 11:23:42;;;;;;;23.83;22.43;;;;;;;;;;5068188;28;20972;-67
2021/07/28 11:26:21;;;;;;;23.53;22.33;;;;;;;;;;5055941;28;20466;-67
2021/07/28 11:28:48;;;;;;;21.20;20.10;;;;;;;;;;5052354;28;20518;-67
2021/07/28 11:31:15;;;;;;;23.90;22.60;;;;;;;;;;5048219;28;20490;-68
2021/07/28 11:33:43;;;;;;;22.83;21.73;;;;;;;;;;5048423;28;20452;-69
2021/07/28 11:36:10;;;;;;;22.73;21.47;;;;;;;;;;5061581;28;20471;-69
2021/07/28 11:38:38;;;;;;;23.23;21.93;;;;;;;;;;5063961;28;20538;-69
2021/07/28 11:41:09;;;;;;;21.90;20.80;;;;;;;;;;5048294;28;20975;-69
2021/07/28 11:43:38;;;;;;;22.03;20.93;;;;;;;;;;5048349;28;20459;-68
2021/07/28 11:46:07;;;;;;;21.90;20.90;;;;;;;;;;5047786;28;20480;-68
2021/07/28 11:48:34;;;;;;;21.70;20.50;;;;;;;;;;5057872;28;20958;-68
2021/07/28 11:51:03;;;;;;;24.47;23.27;;;;;;;;;;5067566;28;20490;-67
2021/07/28 11:53:31;;;;;;;20.73;19.63;;;;;;;;;;5067840;28;20449;-68
2021/07/28 11:56:08;;;;;;;21.97;20.77;;;;;;;;;;5066073;28;20466;-68
2021/07/28 11:58:35;;;;;;;21.83;20.60;;;;;;;;;;5047992;28;20452;-67
2021/07/28 12:01:17;;;;;;;21.97;20.87;;;;;;;;;;5047712;28;20446;-68
2021/07/28 12:03:48;;;;;;;22.70;21.50;;;;;;;;;;5035758;28;20823;-67
2021/07/28 12:06:15;;;;;;;23.50;22.30;;;;;;;;;;5039072;23;20504;-68
2021/07/28 12:08:42;;;;;;;22.83;21.43;;;;;;;;;;5011988;28;20448;-68
2021/07/28 12:11:12;;;;;;;23.40;22.20;;;;;;;;;;5007185;28;20484;-67
2021/07/28 12:13:45;;;;;;;22.93;21.70;;;;;;;;;;5016007;28;20817;-67
2021/07/28 12:16:12;;;;;;;22.80;21.60;;;;;;;;;;5016525;28;20499;-68
2021/07/28 12:18:40;;;;;;;23.30;22.00;;;;;;;;;;4977134;28;20560;-68
2021/07/28 12:21:07;;;;;;;22.80;21.70;;;;;;;;;;4976805;28;20443;-68
2021/07/28 12:23:35;;;;;;;21.97;20.80;;;;;;;;;;4976567;28;20469;-68
2021/07/28 12:26:02;;;;;;;21.90;20.80;;;;;;;;;;4976958;28;20602;-68
2021/07/28 12:28:44;;;;;;;23.00;21.80;;;;;;;;;;4976386;28;20457;-67
2021/07/28 12:31:25;;;;;;;22.47;21.27;;;;;;;;;;4975878;28;20482;-68
2021/07/28 12:33:52;;;;;;;21.97;20.87;;;;;;;;;;4990568;28;20457;-68
2021/07/28 12:36:26;;;;;;;21.77;20.67;;;;;;;;;;4994677;28;20481;-68
2021/07/28 12:38:53;;;;;;;22.20;21.00;;;;;;;;;;4995473;28;20524;-67
2021/07/28 12:41:21;;;;;;;22.53;21.33;;;;;;;;;;4995593;28;20458;-68
2021/07/28 12:43:50;;;;;;;21.83;20.73;;;;;;;;;;4994939;28;20509;-68
2021/07/28 12:46:19;;;;;;;21.70;20.60;;;;;;;;;;4995071;28;20546;-68
2021/07/28 12:48:46;;;;;;;21.70;20.60;;;;;;;;;;4992705;28;20455;-68
2021/07/28 12:51:14;;;;;;;22.73;21.43;;;;;;;;;;4994240;28;20486;-70
2021/07/28 12:53:41;;;;;;;22.37;21.17;;;;;;;;;;4994111;28;20477;-71
2021/07/28 12:56:08;;;;;;;21.47;20.30;;;;;;;;;;4993938;28;20484;-68
2021/07/28 12:58:35;;;;;;;21.63;20.53;;;;;;;;;;4988163;28;20452;-70
2021/07/28 13:01:04;;;;;;;21.53;20.33;;;;;;;;;;4974470;28;20451;-70
2021/07/28 13:03:34;;;;;;;21.77;20.57;;;;;;;;;;4974525;28;20951;-70
2021/07/28 13:06:06;;;;;;;25.17;23.87;;;;;;;;;;4974797;28;20482;-70
2021/07/28 13:08:33;;;;;;;24.90;23.60;;;;;;;;;;4974563;28;20867;-68
2021/07/28 13:11:00;;;;;;;25.63;24.23;;;;;;;;;;4974773;28;20890;-68
2021/07/28 13:13:27;;;;;;;25.43;23.80;;;;;;;;;;4975621;28;20474;-68
2021/07/28 13:15:55;;;;;;;26.07;24.47;;;;;;;;;;4994654;28;20470;-68
2021/07/28 13:18:22;;;;;;;26.20;24.80;;;;;;;;;;4994469;28;20522;-68
2021/07/28 13:20:50;;;;;;;26.20;24.83;;;;;;;;;;4993943;28;20442;-68
2021/07/28 13:23:18;;;;;;;26.70;25.30;;;;;;;;;;4994936;28;20451;-68
2021/07/28 13:25:45;;;;;;;25.50;24.10;;;;;;;;;;4994775;28;20969;-67
2021/07/28 13:28:14;;;;;;;25.80;24.50;;;;;;;;;;4994304;28;20450;-67
2021/07/28 13:30:41;;;;;;;26.23;24.73;;;;;;;;;;4993632;28;20494;-67
2021/07/28 13:33:08;;;;;;;25.60;24.20;;;;;;;;;;4994932;28;20457;-68
2021/07/28 13:35:36;;;;;;;25.33;24.07;;;;;;;;;;4993730;28;20471;-67
2021/07/28 13:38:04;;;;;;;25.57;24.17;;;;;;;;;;4994167;28;20517;-67
2021/07/28 13:40:31;;;;;;;26.00;24.70;;;;;;;;;;4993435;28;20942;-67
2021/07/28 13:43:00;;;;;;;26.27;24.80;;;;;;;;;;4993941;28;20454;-68
2021/07/28 13:45:27;;;;;;;25.00;23.73;;;;;;;;;;4993986;28;20469;-67
2021/07/28 13:47:55;;;;;;;27.10;25.60;;;;;;;;;;4995042;28;20469;-68
2021/07/28 13:50:22;;;;;;;26.40;25.00;;;;;;;;;;4977486;28;20457;-67
2021/07/28 13:52:50;;;;;;;26.30;24.90;;;;;;;;;;4975335;28;20865;-67
2021/07/28 13:55:19;;;;;;;26.47;25.07;;;;;;;;;;4975706;28;20963;-67
2021/07/28 13:57:46;;;;;;;27.00;25.60;;;;;;;;;;4975627;28;20877;-67
2021/07/28 14:00:15;;;;;;;26.60;25.20;;;;;;;;;;4975050;28;20456;-67
2021/07/28 14:02:42;;;;;;;25.70;24.40;;;;;;;;;;4975438;28;20502;-67
2021/07/28 14:05:09;;;;;;;25.60;24.10;;;;;;;;;;4975056;28;20459;-68
2021/07/28 14:07:36;;;;;;;26.77;25.37;;;;;;;;;;4975145;28;20451;-67
2021/07/28 14:10:04;;;;;;;27.10;25.60;;;;;;;;;;4975186;28;20466;-67
2021/07/28 14:12:32;;;;;;;25.70;24.20;;;;;;;;;;4974094;28;20487;-68
2021/07/28 14:15:00;;;;;;;27.00;25.30;;;;;;;;;;4974702;28;20455;-68
2021/07/28 14:17:27;;;;;;;26.10;24.70;;;;;;;;;;4974977;28;20946;-68
2021/07/28 14:19:54;;;;;;;26.67;25.27;;;;;;;;;;4974328;28;20455;-67
2021/07/28 14:22:21;;;;;;;26.20;24.40;;;;;;;;;;4973812;28;20451;-68
2021/07/28 14:24:48;;;;;;;25.80;24.50;;;;;;;;;;4973806;28;20455;-67
2021/07/28 14:27:15;;;;;;;26.27;24.97;;;;;;;;;;4973067;28;20478;-70
2021/07/28 14:29:44;;;;;;;25.77;24.37;;;;;;;;;;4973193;28;20829;-70